»·PEaware :: N448RA KSBD-KBFL

N448RA :: KSBD-KBFL

FLIGHT INFORMATION

Flight Status: Arrived
Operator: Privately registered:
United States
More flights under this callsign
Pilot: Scott M. (16181)
Aircraft: Unknown
(DA62)
More flights by this aircraft type
Origin: KSBD San Bernardino Intl
United States
Destination: KBFL Meadows
United States
More flights between these airports :: More routes between these airports
Route:
File this flight plan on PilotEdge
Remarks:
Altitude:
(Current/Filed)
8,500ft
Speed:
(Current/Filed)
160kts
Departed: 27-Jun-18 05:06 PM
Arrived: 27-Jun-18 05:58 PM
Distance/Time
Traveled:
120nm/0:52
Distance/Time
To Go:
Arrived

Flight Plot

Page will automatically refresh every two minutes.


Map Options




Map Legend


Flown Route
Filed Route
Departure Airport
Arrival Airport
Navaid (VOR, NDB)
Fix

Horizontal Profiles

Position Reports

Time Latitude Longitude Heading Altitude Ground
Speed
27-Jun-18 16:43 34.102166 -117.224730 94 1146ft 0kts
27-Jun-18 16:44 34.102166 -117.224730 94 1146ft 0kts
27-Jun-18 16:45 34.102166 -117.224730 94 1146ft 0kts
27-Jun-18 16:46 34.102166 -117.224730 94 1146ft 0kts
27-Jun-18 16:47 34.102166 -117.224730 94 1146ft 0kts
27-Jun-18 16:48 34.102166 -117.224730 94 1146ft 0kts
27-Jun-18 16:49 34.102166 -117.224730 94 1146ft 0kts
27-Jun-18 16:50 34.102166 -117.224730 94 1146ft 0kts
27-Jun-18 16:51 34.102166 -117.224730 94 1146ft 0kts
27-Jun-18 16:52 34.101787 -117.224852 189 1146ft 8kts
27-Jun-18 16:53 34.099601 -117.227713 202 1137ft 10kts
27-Jun-18 16:54 34.098142 -117.231488 250 1126ft 17kts
27-Jun-18 16:55 34.096386 -117.237419 250 1111ft 21kts
27-Jun-18 16:56 34.094272 -117.244591 250 1094ft 23kts
27-Jun-18 16:57 34.092334 -117.250753 220 1082ft 9kts
27-Jun-18 16:58 34.091617 -117.250759 161 1081ft 0kts
27-Jun-18 16:59 34.091744 -117.250705 343 1082ft 5kts
27-Jun-18 17:00 34.093812 -117.246155 70 1091ft 21kts
27-Jun-18 17:01 34.095804 -117.239394 70 1107ft 21kts
27-Jun-18 17:02 34.097708 -117.232972 70 1123ft 21kts
27-Jun-18 17:03 34.100024 -117.225157 70 1145ft 24kts
27-Jun-18 17:04 34.100817 -117.219768 158 1159ft 0kts
27-Jun-18 17:05 34.100494 -117.219647 170 1159ft 10kts
27-Jun-18 17:06 34.094706 -117.236355 247 1366ft 91kts
27-Jun-18 17:07 34.094548 -117.272675 322 1999ft 136kts
27-Jun-18 17:08 34.124025 -117.300918 317 2851ft 133kts
27-Jun-18 17:09 34.154209 -117.326798 319 3673ft 133kts
27-Jun-18 17:10 34.184372 -117.352359 320 4506ft 133kts
27-Jun-18 17:11 34.214378 -117.380248 317 5166ft 141kts
27-Jun-18 17:12 34.244908 -117.409750 319 5868ft 140kts
27-Jun-18 17:13 34.280453 -117.427856 325 6617ft 138kts
27-Jun-18 17:14 34.310778 -117.455065 315 7506ft 137kts
27-Jun-18 17:15 34.340071 -117.484892 315 8394ft 138kts
27-Jun-18 17:16 34.373071 -117.518766 316 8520ft 169kts
27-Jun-18 17:17 34.401524 -117.562508 295 8491ft 168kts
27-Jun-18 17:18 34.424200 -117.611769 296 8488ft 166kts
27-Jun-18 17:19 34.446204 -117.659557 295 8491ft 165kts
27-Jun-18 17:20 34.468435 -117.707941 295 8491ft 165kts
27-Jun-18 17:21 34.490667 -117.756316 295 8492ft 165kts
27-Jun-18 17:22 34.515849 -117.802601 303 8491ft 165kts
27-Jun-18 17:23 34.543984 -117.846559 303 8491ft 165kts
27-Jun-18 17:24 34.569961 -117.887140 303 8500ft 165kts
27-Jun-18 17:25 34.597250 -117.929832 303 8500ft 165kts
27-Jun-18 17:26 34.625404 -117.973921 303 8500ft 165kts
27-Jun-18 17:27 34.653568 -118.018080 303 8500ft 165kts
27-Jun-18 17:28 34.681680 -118.062212 303 8499ft 165kts
27-Jun-18 17:29 34.709744 -118.106326 303 8499ft 165kts
27-Jun-18 17:30 34.737848 -118.150556 303 8499ft 165kts
27-Jun-18 17:31 34.766004 -118.194904 303 8481ft 168kts
27-Jun-18 17:32 34.794633 -118.240083 303 8481ft 169kts
27-Jun-18 17:33 34.823093 -118.285082 303 8480ft 166kts
27-Jun-18 17:34 34.850914 -118.329078 304 8479ft 163kts
27-Jun-18 17:35 34.878165 -118.372252 304 8574ft 158kts
27-Jun-18 17:36 34.905422 -118.415467 304 8170ft 162kts
27-Jun-18 17:37 34.933432 -118.457315 312 7652ft 159kts
27-Jun-18 17:38 34.964612 -118.495209 307 7118ft 157kts
27-Jun-18 17:39 34.989220 -118.538232 300 6800ft 154kts
27-Jun-18 17:40 35.012788 -118.581813 320 6698ft 155kts
27-Jun-18 17:41 35.048823 -118.611087 333 6738ft 159kts
27-Jun-18 17:42 35.084922 -118.640814 318 6523ft 158kts
27-Jun-18 17:43 35.115714 -118.674905 313 6151ft 155kts
27-Jun-18 17:44 35.146551 -118.711720 314 5662ft 153kts
27-Jun-18 17:45 35.175654 -118.746606 314 5159ft 141kts
27-Jun-18 17:46 35.203199 -118.779662 314 4735ft 134kts
27-Jun-18 17:47 35.229565 -118.811339 314 4730ft 134kts
27-Jun-18 17:48 35.256222 -118.843411 314 4703ft 136kts
27-Jun-18 17:49 35.284529 -118.877450 315 4388ft 150kts
27-Jun-18 17:50 35.315752 -118.914513 315 3715ft 157kts
27-Jun-18 17:51 35.339567 -118.943579 315 3326ft 100kts
27-Jun-18 17:52 35.359467 -118.967414 316 2634ft 101kts
27-Jun-18 17:53 35.379169 -118.990862 317 2010ft 97kts
27-Jun-18 17:54 35.397399 -119.012449 317 1492ft 83kts
27-Jun-18 17:55 35.413320 -119.031571 315 1041ft 79kts
27-Jun-18 17:56 35.420300 -119.025035 191 904ft 92kts
27-Jun-18 17:57 35.425424 -119.046234 316 710ft 80kts
27-Jun-18 17:58 35.438141 -119.060142 48 495ft 3kts
27-Jun-18 17:59 35.437319 -119.058177 135 495ft 24kts
27-Jun-18 18:00 35.431676 -119.051357 135 493ft 25kts
27-Jun-18 18:01 35.429966 -119.047069 127 495ft 13kts

Navigation Log

Ident Type
1. KSBD Airport
2. KBFL Airport